sensor_id;sensor_type;location;lat;lon;timestamp;pressure;altitude;pressure_sealevel;temperature
9985;BMP180;16737;50.932;6.780;2023-02-15T00:01:32;101496.00;;;6.90
9985;BMP180;16737;50.932;6.780;2023-02-15T00:03:59;101490.00;;;6.90
9985;BMP180;16737;50.932;6.780;2023-02-15T00:06:27;101496.00;;;6.90
9985;BMP180;16737;50.932;6.780;2023-02-15T00:08:54;101478.00;;;6.90
9985;BMP180;16737;50.932;6.780;2023-02-15T00:11:22;101478.00;;;6.90
9985;BMP180;16737;50.932;6.780;2023-02-15T00:14:06;101488.00;;;6.90
9985;BMP180;16737;50.932;6.780;2023-02-15T00:16:34;101484.00;;;6.90
9985;BMP180;16737;50.932;6.780;2023-02-15T00:19:01;101482.00;;;6.80
9985;BMP180;16737;50.932;6.780;2023-02-15T00:21:29;101478.00;;;6.80
9985;BMP180;16737;50.932;6.780;2023-02-15T00:23:59;101485.00;;;6.80
9985;BMP180;16737;50.932;6.780;2023-02-15T00:26:27;101475.00;;;6.80
9985;BMP180;16737;50.932;6.780;2023-02-15T00:28:54;101487.00;;;6.80
9985;BMP180;16737;50.932;6.780;2023-02-15T00:31:23;101489.00;;;6.80
9985;BMP180;16737;50.932;6.780;2023-02-15T00:33:50;101479.00;;;6.80
9985;BMP180;16737;50.932;6.780;2023-02-15T00:36:17;101470.00;;;6.80
9985;BMP180;16737;50.932;6.780;2023-02-15T00:38:44;101473.00;;;6.80
9985;BMP180;16737;50.932;6.780;2023-02-15T00:41:11;101473.00;;;6.80
9985;BMP180;16737;50.932;6.780;2023-02-15T00:43:37;101461.00;;;6.80
9985;BMP180;16737;50.932;6.780;2023-02-15T00:46:05;101456.00;;;6.70
9985;BMP180;16737;50.932;6.780;2023-02-15T00:48:33;101472.00;;;6.70
9985;BMP180;16737;50.932;6.780;2023-02-15T00:51:01;101482.00;;;6.70
9985;BMP180;16737;50.932;6.780;2023-02-15T00:53:29;101468.00;;;6.70
9985;BMP180;16737;50.932;6.780;2023-02-15T00:55:56;101463.00;;;6.70
9985;BMP180;16737;50.932;6.780;2023-02-15T00:58:24;101464.00;;;6.70
9985;BMP180;16737;50.932;6.780;2023-02-15T01:00:51;101439.00;;;6.60
9985;BMP180;16737;50.932;6.780;2023-02-15T01:03:20;101453.00;;;6.60
9985;BMP180;16737;50.932;6.780;2023-02-15T01:05:50;101453.00;;;6.60
9985;BMP180;16737;50.932;6.780;2023-02-15T01:08:17;101460.00;;;6.50
9985;BMP180;16737;50.932;6.780;2023-02-15T01:10:44;101466.00;;;6.50
9985;BMP180;16737;50.932;6.780;2023-02-15T01:13:14;101465.00;;;6.50
9985;BMP180;16737;50.932;6.780;2023-02-15T01:15:42;101462.00;;;6.50
9985;BMP180;16737;50.932;6.780;2023-02-15T01:18:09;101453.00;;;6.50
9985;BMP180;16737;50.932;6.780;2023-02-15T01:20:39;101461.00;;;6.40
9985;BMP180;16737;50.932;6.780;2023-02-15T01:23:08;101444.00;;;6.40
9985;BMP180;16737;50.932;6.780;2023-02-15T01:25:36;101451.00;;;6.40
9985;BMP180;16737;50.932;6.780;2023-02-15T01:28:04;101453.00;;;6.40
9985;BMP180;16737;50.932;6.780;2023-02-15T01:30:32;101460.00;;;6.40
9985;BMP180;16737;50.932;6.780;2023-02-15T01:32:59;101453.00;;;6.30
9985;BMP180;16737;50.932;6.780;2023-02-15T01:35:27;101448.00;;;6.30
9985;BMP180;16737;50.932;6.780;2023-02-15T01:37:54;101448.00;;;6.30
9985;BMP180;16737;50.932;6.780;2023-02-15T01:40:24;101444.00;;;6.30
9985;BMP180;16737;50.932;6.780;2023-02-15T01:42:52;101444.00;;;6.30
9985;BMP180;16737;50.932;6.780;2023-02-15T01:45:24;101454.00;;;6.20
9985;BMP180;16737;50.932;6.780;2023-02-15T01:47:56;101453.00;;;6.20
9985;BMP180;16737;50.932;6.780;2023-02-15T01:50:30;101449.00;;;6.30
9985;BMP180;16737;50.932;6.780;2023-02-15T01:53:06;101435.00;;;6.30
9985;BMP180;16737;50.932;6.780;2023-02-15T01:55:40;101429.00;;;6.20
9985;BMP180;16737;50.932;6.780;2023-02-15T01:58:10;101433.00;;;6.30
9985;BMP180;16737;50.932;6.780;2023-02-15T02:00:37;101426.00;;;6.20
9985;BMP180;16737;50.932;6.780;2023-02-15T02:03:04;101433.00;;;6.20
9985;BMP180;16737;50.932;6.780;2023-02-15T02:05:32;101421.00;;;6.20
9985;BMP180;16737;50.932;6.780;2023-02-15T02:08:02;101428.00;;;6.20
9985;BMP180;16737;50.932;6.780;2023-02-15T02:10:29;101428.00;;;6.20
9985;BMP180;16737;50.932;6.780;2023-02-15T02:13:03;101417.00;;;6.10
9985;BMP180;16737;50.932;6.780;2023-02-15T02:15:40;101425.00;;;6.10
9985;BMP180;16737;50.932;6.780;2023-02-15T02:18:24;101424.00;;;6.10
9985;BMP180;16737;50.932;6.780;2023-02-15T02:27:41;101406.00;;;6.00
9985;BMP180;16737;50.932;6.780;2023-02-15T02:30:53;101397.00;;;6.00
9985;BMP180;16737;50.932;6.780;2023-02-15T02:33:49;101397.00;;;6.00
9985;BMP180;16737;50.932;6.780;2023-02-15T02:36:25;101394.00;;;6.00
9985;BMP180;16737;50.932;6.780;2023-02-15T02:39:29;101382.00;;;6.00
9985;BMP180;16737;50.932;6.780;2023-02-15T02:42:06;101373.00;;;6.00
9985;BMP180;16737;50.932;6.780;2023-02-15T02:44:42;101380.00;;;6.00
9985;BMP180;16737;50.932;6.780;2023-02-15T02:47:16;101378.00;;;6.00
9985;BMP180;16737;50.932;6.780;2023-02-15T02:49:47;101374.00;;;5.90
9985;BMP180;16737;50.932;6.780;2023-02-15T02:52:38;101363.00;;;5.90
9985;BMP180;16737;50.932;6.780;2023-02-15T02:55:11;101363.00;;;5.90
9985;BMP180;16737;50.932;6.780;2023-02-15T02:57:49;101367.00;;;5.90
9985;BMP180;16737;50.932;6.780;2023-02-15T03:00:18;101357.00;;;5.90
9985;BMP180;16737;50.932;6.780;2023-02-15T03:02:49;101351.00;;;5.90
9985;BMP180;16737;50.932;6.780;2023-02-15T03:05:24;101351.00;;;5.90
9985;BMP180;16737;50.932;6.780;2023-02-15T03:07:53;101357.00;;;5.90
9985;BMP180;16737;50.932;6.780;2023-02-15T03:10:24;101355.00;;;5.80
9985;BMP180;16737;50.932;6.780;2023-02-15T03:12:52;101343.00;;;5.80
9985;BMP180;16737;50.932;6.780;2023-02-15T03:15:23;101334.00;;;5.80
9985;BMP180;16737;50.932;6.780;2023-02-15T03:17:57;101345.00;;;5.80
9985;BMP180;16737;50.932;6.780;2023-02-15T03:20:33;101336.00;;;5.80
9985;BMP180;16737;50.932;6.780;2023-02-15T03:23:06;101349.00;;;5.80
9985;BMP180;16737;50.932;6.780;2023-02-15T03:25:41;101312.00;;;5.80
9985;BMP180;16737;50.932;6.780;2023-02-15T03:28:13;101335.00;;;5.80
9985;BMP180;16737;50.932;6.780;2023-02-15T03:30:46;101338.00;;;5.80
9985;BMP180;16737;50.932;6.780;2023-02-15T03:33:15;101340.00;;;5.80
9985;BMP180;16737;50.932;6.780;2023-02-15T03:35:50;101327.00;;;5.80
9985;BMP180;16737;50.932;6.780;2023-02-15T03:38:26;101306.00;;;5.80
9985;BMP180;16737;50.932;6.780;2023-02-15T03:40:59;101346.00;;;5.80
9985;BMP180;16737;50.932;6.780;2023-02-15T03:43:45;101330.00;;;5.70
9985;BMP180;16737;50.932;6.780;2023-02-15T03:46:22;101347.00;;;5.70
9985;BMP180;16737;50.932;6.780;2023-02-15T03:48:54;101335.00;;;5.70
9985;BMP180;16737;50.932;6.780;2023-02-15T03:51:33;101329.00;;;5.70
9985;BMP180;16737;50.932;6.780;2023-02-15T03:54:03;101295.00;;;5.70
9985;BMP180;16737;50.932;6.780;2023-02-15T03:56:31;101340.00;;;5.70
9985;BMP180;16737;50.932;6.780;2023-02-15T03:58:59;101334.00;;;5.70
9985;BMP180;16737;50.932;6.780;2023-02-15T04:01:56;101332.00;;;5.60
9985;BMP180;16737;50.932;6.780;2023-02-15T04:04:33;101348.00;;;5.60
9985;BMP180;16737;50.932;6.780;2023-02-15T04:07:04;101337.00;;;5.60
9985;BMP180;16737;50.932;6.780;2023-02-15T04:09:31;101336.00;;;5.60
9985;BMP180;16737;50.932;6.780;2023-02-15T04:12:15;101342.00;;;5.60
9985;BMP180;16737;50.932;6.780;2023-02-15T04:14:42;101347.00;;;5.60
9985;BMP180;16737;50.932;6.780;2023-02-15T04:17:27;101324.00;;;5.60
9985;BMP180;16737;50.932;6.780;2023-02-15T04:19:54;101320.00;;;5.60
9985;BMP180;16737;50.932;6.780;2023-02-15T04:22:40;101325.00;;;5.50
9985;BMP180;16737;50.932;6.780;2023-02-15T04:25:25;101323.00;;;5.50
9985;BMP180;16737;50.932;6.780;2023-02-15T04:27:54;101315.00;;;5.50
9985;BMP180;16737;50.932;6.780;2023-02-15T04:30:24;101332.00;;;5.50
9985;BMP180;16737;50.932;6.780;2023-02-15T04:32:53;101337.00;;;5.50
9985;BMP180;16737;50.932;6.780;2023-02-15T04:35:20;101331.00;;;5.50
9985;BMP180;16737;50.932;6.780;2023-02-15T04:37:49;101328.00;;;5.50
9985;BMP180;16737;50.932;6.780;2023-02-15T04:40:20;101326.00;;;5.50
9985;BMP180;16737;50.932;6.780;2023-02-15T04:42:48;101317.00;;;5.50
9985;BMP180;16737;50.932;6.780;2023-02-15T04:45:24;101328.00;;;5.50
9985;BMP180;16737;50.932;6.780;2023-02-15T04:47:52;101333.00;;;5.50
9985;BMP180;16737;50.932;6.780;2023-02-15T04:50:19;101320.00;;;5.50
9985;BMP180;16737;50.932;6.780;2023-02-15T04:52:46;101326.00;;;5.50
9985;BMP180;16737;50.932;6.780;2023-02-15T04:55:15;101326.00;;;5.50
9985;BMP180;16737;50.932;6.780;2023-02-15T04:57:41;101314.00;;;5.50
9985;BMP180;16737;50.932;6.780;2023-02-15T05:00:09;101306.00;;;5.50
9985;BMP180;16737;50.932;6.780;2023-02-15T05:02:36;101315.00;;;5.50
9985;BMP180;16737;50.932;6.780;2023-02-15T05:05:04;101313.00;;;5.40
9985;BMP180;16737;50.932;6.780;2023-02-15T05:07:31;101307.00;;;5.40
9985;BMP180;16737;50.932;6.780;2023-02-15T05:09:58;101308.00;;;5.40
9985;BMP180;16737;50.932;6.780;2023-02-15T05:12:28;101315.00;;;5.40
9985;BMP180;16737;50.932;6.780;2023-02-15T05:14:55;101311.00;;;5.40
9985;BMP180;16737;50.932;6.780;2023-02-15T05:17:22;101308.00;;;5.40
9985;BMP180;16737;50.932;6.780;2023-02-15T05:19:49;101301.00;;;5.40
9985;BMP180;16737;50.932;6.780;2023-02-15T05:22:16;101293.00;;;5.40
9985;BMP180;16737;50.932;6.780;2023-02-15T05:24:43;101306.00;;;5.40
9985;BMP180;16737;50.932;6.780;2023-02-15T05:27:29;101269.00;;;5.30
9985;BMP180;16737;50.932;6.780;2023-02-15T05:30:14;101281.00;;;5.30
9985;BMP180;16737;50.932;6.780;2023-02-15T05:32:41;101299.00;;;5.20
9985;BMP180;16737;50.932;6.780;2023-02-15T05:35:12;101306.00;;;5.20
9985;BMP180;16737;50.932;6.780;2023-02-15T05:37:40;101306.00;;;5.20
9985;BMP180;16737;50.932;6.780;2023-02-15T05:40:08;101301.00;;;5.20
9985;BMP180;16737;50.932;6.780;2023-02-15T05:42:36;101291.00;;;5.10
9985;BMP180;16737;50.932;6.780;2023-02-15T05:45:05;101270.00;;;5.20
9985;BMP180;16737;50.932;6.780;2023-02-15T05:47:32;101295.00;;;5.20
9985;BMP180;16737;50.932;6.780;2023-02-15T05:49:59;101298.00;;;5.10
9985;BMP180;16737;50.932;6.780;2023-02-15T05:52:26;101299.00;;;5.10
9985;BMP180;16737;50.932;6.780;2023-02-15T05:54:53;101278.00;;;5.10
9985;BMP180;16737;50.932;6.780;2023-02-15T05:57:20;101294.00;;;5.10
9985;BMP180;16737;50.932;6.780;2023-02-15T05:59:48;101289.00;;;5.20
9985;BMP180;16737;50.932;6.780;2023-02-15T06:02:15;101288.00;;;5.10
9985;BMP180;16737;50.932;6.780;2023-02-15T06:04:41;101292.00;;;5.20
9985;BMP180;16737;50.932;6.780;2023-02-15T06:07:08;101294.00;;;5.20
9985;BMP180;16737;50.932;6.780;2023-02-15T06:09:35;101295.00;;;5.20
9985;BMP180;16737;50.932;6.780;2023-02-15T06:12:03;101292.00;;;5.20
9985;BMP180;16737;50.932;6.780;2023-02-15T06:14:30;101301.00;;;5.10
9985;BMP180;16737;50.932;6.780;2023-02-15T06:16:58;101291.00;;;5.10
9985;BMP180;16737;50.932;6.780;2023-02-15T06:19:25;101289.00;;;5.10
9985;BMP180;16737;50.932;6.780;2023-02-15T06:21:52;101289.00;;;5.10
9985;BMP180;16737;50.932;6.780;2023-02-15T06:24:19;101282.00;;;5.20
9985;BMP180;16737;50.932;6.780;2023-02-15T06:26:46;101295.00;;;5.20
9985;BMP180;16737;50.932;6.780;2023-02-15T06:29:12;101308.00;;;5.20
9985;BMP180;16737;50.932;6.780;2023-02-15T06:31:40;101292.00;;;5.20
9985;BMP180;16737;50.932;6.780;2023-02-15T06:34:08;101291.00;;;5.10
9985;BMP180;16737;50.932;6.780;2023-02-15T06:36:35;101299.00;;;5.10
9985;BMP180;16737;50.932;6.780;2023-02-15T06:39:03;101293.00;;;5.10
9985;BMP180;16737;50.932;6.780;2023-02-15T06:41:30;101305.00;;;5.10
9985;BMP180;16737;50.932;6.780;2023-02-15T06:43:57;101303.00;;;5.10
9985;BMP180;16737;50.932;6.780;2023-02-15T06:46:24;101316.00;;;5.10
9985;BMP180;16737;50.932;6.780;2023-02-15T06:48:51;101288.00;;;5.10
9985;BMP180;16737;50.932;6.780;2023-02-15T06:51:19;101299.00;;;5.10
9985;BMP180;16737;50.932;6.780;2023-02-15T06:53:46;101268.00;;;5.10
9985;BMP180;16737;50.932;6.780;2023-02-15T06:56:13;101295.00;;;5.10
9985;BMP180;16737;50.932;6.780;2023-02-15T06:58:42;101301.00;;;5.10
9985;BMP180;16737;50.932;6.780;2023-02-15T07:01:11;101301.00;;;5.10
9985;BMP180;16737;50.932;6.780;2023-02-15T07:03:38;101293.00;;;5.10
9985;BMP180;16737;50.932;6.780;2023-02-15T07:06:05;101300.00;;;5.10
9985;BMP180;16737;50.932;6.780;2023-02-15T07:08:36;101302.00;;;5.10
9985;BMP180;16737;50.932;6.780;2023-02-15T07:11:04;101291.00;;;5.10
9985;BMP180;16737;50.932;6.780;2023-02-15T07:13:49;101309.00;;;5.10
9985;BMP180;16737;50.932;6.780;2023-02-15T07:16:18;101295.00;;;5.10
9985;BMP180;16737;50.932;6.780;2023-02-15T07:18:45;101311.00;;;5.10
9985;BMP180;16737;50.932;6.780;2023-02-15T07:21:12;101302.00;;;5.10
9985;BMP180;16737;50.932;6.780;2023-02-15T07:23:40;101291.00;;;5.10
9985;BMP180;16737;50.932;6.780;2023-02-15T07:26:07;101295.00;;;5.20
9985;BMP180;16737;50.932;6.780;2023-02-15T07:28:35;101290.00;;;5.20
9985;BMP180;16737;50.932;6.780;2023-02-15T07:31:03;101285.00;;;5.20
9985;BMP180;16737;50.932;6.780;2023-02-15T07:33:31;101273.00;;;5.20
9985;BMP180;16737;50.932;6.780;2023-02-15T07:36:00;101288.00;;;5.10
9985;BMP180;16737;50.932;6.780;2023-02-15T07:38:31;101277.00;;;5.20
9985;BMP180;16737;50.932;6.780;2023-02-15T07:41:01;101271.00;;;5.30
9985;BMP180;16737;50.932;6.780;2023-02-15T07:43:29;101258.00;;;5.30
9985;BMP180;16737;50.932;6.780;2023-02-15T07:45:59;101264.00;;;5.30
9985;BMP180;16737;50.932;6.780;2023-02-15T07:48:27;101218.00;;;5.40
9985;BMP180;16737;50.932;6.780;2023-02-15T07:50:54;101249.00;;;5.40
9985;BMP180;16737;50.932;6.780;2023-02-15T07:53:24;101262.00;;;5.50
9985;BMP180;16737;50.932;6.780;2023-02-15T07:55:52;101241.00;;;5.50
9985;BMP180;16737;50.932;6.780;2023-02-15T07:58:20;101256.00;;;5.60
9985;BMP180;16737;50.932;6.780;2023-02-15T08:01:07;101250.00;;;5.60
9985;BMP180;16737;50.932;6.780;2023-02-15T08:03:34;101246.00;;;5.70
9985;BMP180;16737;50.932;6.780;2023-02-15T08:06:01;101249.00;;;5.70
9985;BMP180;16737;50.932;6.780;2023-02-15T08:08:28;101246.00;;;5.80
9985;BMP180;16737;50.932;6.780;2023-02-15T08:10:59;101243.00;;;5.80
9985;BMP180;16737;50.932;6.780;2023-02-15T08:13:47;101238.00;;;5.80
9985;BMP180;16737;50.932;6.780;2023-02-15T08:16:23;101244.00;;;5.90
9985;BMP180;16737;50.932;6.780;2023-02-15T08:18:51;101249.00;;;6.00
9985;BMP180;16737;50.932;6.780;2023-02-15T08:21:18;101239.00;;;6.10
9985;BMP180;16737;50.932;6.780;2023-02-15T08:23:46;101250.00;;;6.10
9985;BMP180;16737;50.932;6.780;2023-02-15T08:26:14;101257.00;;;6.20
9985;BMP180;16737;50.932;6.780;2023-02-15T08:28:42;101244.00;;;6.20
9985;BMP180;16737;50.932;6.780;2023-02-15T08:31:12;101245.00;;;6.30
9985;BMP180;16737;50.932;6.780;2023-02-15T08:33:42;101237.00;;;6.30
9985;BMP180;16737;50.932;6.780;2023-02-15T08:36:14;101237.00;;;6.40
9985;BMP180;16737;50.932;6.780;2023-02-15T08:38:42;101236.00;;;6.50
9985;BMP180;16737;50.932;6.780;2023-02-15T08:41:14;101241.00;;;6.50
9985;BMP180;16737;50.932;6.780;2023-02-15T08:43:42;101234.00;;;6.60
9985;BMP180;16737;50.932;6.780;2023-02-15T08:46:12;101238.00;;;6.70
9985;BMP180;16737;50.932;6.780;2023-02-15T08:48:40;101240.00;;;6.80
9985;BMP180;16737;50.932;6.780;2023-02-15T08:51:10;101236.00;;;6.80
9985;BMP180;16737;50.932;6.780;2023-02-15T08:53:38;101230.00;;;6.90
9985;BMP180;16737;50.932;6.780;2023-02-15T08:56:06;101237.00;;;7.00
9985;BMP180;16737;50.932;6.780;2023-02-15T08:58:34;101231.00;;;7.10
9985;BMP180;16737;50.932;6.780;2023-02-15T09:01:08;101236.00;;;7.20
9985;BMP180;16737;50.932;6.780;2023-02-15T09:03:36;101228.00;;;7.20
9985;BMP180;16737;50.932;6.780;2023-02-15T09:06:04;101237.00;;;7.30
9985;BMP180;16737;50.932;6.780;2023-02-15T09:08:32;101236.00;;;7.40
9985;BMP180;16737;50.932;6.780;2023-02-15T09:11:07;101238.00;;;7.40
9985;BMP180;16737;50.932;6.780;2023-02-15T09:13:35;101243.00;;;7.50
9985;BMP180;16737;50.932;6.780;2023-02-15T09:16:05;101236.00;;;7.70
9985;BMP180;16737;50.932;6.780;2023-02-15T09:18:37;101243.00;;;7.80
9985;BMP180;16737;50.932;6.780;2023-02-15T09:21:06;101250.00;;;7.90
9985;BMP180;16737;50.932;6.780;2023-02-15T09:23:34;101242.00;;;8.00
9985;BMP180;16737;50.932;6.780;2023-02-15T09:26:07;101254.00;;;8.10
9985;BMP180;16737;50.932;6.780;2023-02-15T09:28:35;101249.00;;;8.30
9985;BMP180;16737;50.932;6.780;2023-02-15T09:33:35;101259.00;;;8.50
9985;BMP180;16737;50.932;6.780;2023-02-15T09:36:04;101263.00;;;8.60
9985;BMP180;16737;50.932;6.780;2023-02-15T09:38:31;101238.00;;;8.70
9985;BMP180;16737;50.932;6.780;2023-02-15T09:41:26;101249.00;;;8.80
9985;BMP180;16737;50.932;6.780;2023-02-15T09:44:14;101251.00;;;9.00
9985;BMP180;16737;50.932;6.780;2023-02-15T09:49:53;101256.00;;;9.10
9985;BMP180;16737;50.932;6.780;2023-02-15T09:52:43;101250.00;;;9.20
9985;BMP180;16737;50.932;6.780;2023-02-15T09:55:40;101256.00;;;9.30
9985;BMP180;16737;50.932;6.780;2023-02-15T09:58:26;101260.00;;;9.40
9985;BMP180;16737;50.932;6.780;2023-02-15T10:01:04;101259.00;;;9.40
9985;BMP180;16737;50.932;6.780;2023-02-15T10:03:50;101258.00;;;9.50
9985;BMP180;16737;50.932;6.780;2023-02-15T10:06:32;101255.00;;;9.70
9985;BMP180;16737;50.932;6.780;2023-02-15T10:09:39;101245.00;;;9.80
9985;BMP180;16737;50.932;6.780;2023-02-15T10:15:29;101266.00;;;10.00
9985;BMP180;16737;50.932;6.780;2023-02-15T10:18:23;101265.00;;;10.00
9985;BMP180;16737;50.932;6.780;2023-02-15T10:21:00;101267.00;;;10.20
9985;BMP180;16737;50.932;6.780;2023-02-15T10:23:52;101266.00;;;10.20
9985;BMP180;16737;50.932;6.780;2023-02-15T10:26:33;101266.00;;;10.40
9985;BMP180;16737;50.932;6.780;2023-02-15T10:29:07;101238.00;;;10.50
9985;BMP180;16737;50.932;6.780;2023-02-15T10:31:45;101256.00;;;10.60
9985;BMP180;16737;50.932;6.780;2023-02-15T10:34:19;101261.00;;;10.70
9985;BMP180;16737;50.932;6.780;2023-02-15T10:37:13;101262.00;;;10.70
9985;BMP180;16737;50.932;6.780;2023-02-15T10:39:53;101260.00;;;10.90
9985;BMP180;16737;50.932;6.780;2023-02-15T10:42:39;101245.00;;;11.00
9985;BMP180;16737;50.932;6.780;2023-02-15T10:45:25;101255.00;;;11.10
9985;BMP180;16737;50.932;6.780;2023-02-15T10:48:10;101254.00;;;11.20
9985;BMP180;16737;50.932;6.780;2023-02-15T10:50:47;101247.00;;;11.30
9985;BMP180;16737;50.932;6.780;2023-02-15T10:53:41;101257.00;;;11.30
9985;BMP180;16737;50.932;6.780;2023-02-15T10:56:20;101257.00;;;11.40
9985;BMP180;16737;50.932;6.780;2023-02-15T10:59:05;101251.00;;;11.50
9985;BMP180;16737;50.932;6.780;2023-02-15T11:01:46;101247.00;;;11.60
9985;BMP180;16737;50.932;6.780;2023-02-15T11:04:51;101240.00;;;11.60
9985;BMP180;16737;50.932;6.780;2023-02-15T11:07:24;101243.00;;;11.80
9985;BMP180;16737;50.932;6.780;2023-02-15T11:10:00;101243.00;;;11.90
9985;BMP180;16737;50.932;6.780;2023-02-15T11:12:31;101243.00;;;12.10
9985;BMP180;16737;50.932;6.780;2023-02-15T11:15:11;101237.00;;;12.20
9985;BMP180;16737;50.932;6.780;2023-02-15T11:17:46;101199.00;;;12.30
9985;BMP180;16737;50.932;6.780;2023-02-15T11:20:23;101237.00;;;12.40
9985;BMP180;16737;50.932;6.780;2023-02-15T11:22:53;101240.00;;;12.60
9985;BMP180;16737;50.932;6.780;2023-02-15T11:25:25;101237.00;;;12.70
9985;BMP180;16737;50.932;6.780;2023-02-15T11:27:56;101243.00;;;12.80
9985;BMP180;16737;50.932;6.780;2023-02-15T11:30:31;101210.00;;;12.90
9985;BMP180;16737;50.932;6.780;2023-02-15T11:33:02;101243.00;;;13.10
9985;BMP180;16737;50.932;6.780;2023-02-15T11:35:40;101236.00;;;13.20
9985;BMP180;16737;50.932;6.780;2023-02-15T11:38:16;101231.00;;;13.40
9985;BMP180;16737;50.932;6.780;2023-02-15T11:40:48;101224.00;;;13.50
9985;BMP180;16737;50.932;6.780;2023-02-15T11:43:21;101225.00;;;13.60
9985;BMP180;16737;50.932;6.780;2023-02-15T11:45:51;101226.00;;;13.70
9985;BMP180;16737;50.932;6.780;2023-02-15T11:48:20;101221.00;;;13.80
9985;BMP180;16737;50.932;6.780;2023-02-15T11:50:47;101225.00;;;13.90
9985;BMP180;16737;50.932;6.780;2023-02-15T11:53:18;101225.00;;;14.00
9985;BMP180;16737;50.932;6.780;2023-02-15T11:55:48;101221.00;;;14.10
9985;BMP180;16737;50.932;6.780;2023-02-15T11:58:29;101197.00;;;14.20
9985;BMP180;16737;50.932;6.780;2023-02-15T12:01:08;101214.00;;;14.30
9985;BMP180;16737;50.932;6.780;2023-02-15T12:03:46;101178.00;;;14.40
9985;BMP180;16737;50.932;6.780;2023-02-15T12:06:23;101187.00;;;14.50
9985;BMP180;16737;50.932;6.780;2023-02-15T12:09:01;101206.00;;;14.60
9985;BMP180;16737;50.932;6.780;2023-02-15T12:11:37;101208.00;;;14.60
9985;BMP180;16737;50.932;6.780;2023-02-15T12:14:07;101202.00;;;14.70
9985;BMP180;16737;50.932;6.780;2023-02-15T12:16:45;101194.00;;;14.70
9985;BMP180;16737;50.932;6.780;2023-02-15T12:19:30;101197.00;;;14.80
9985;BMP180;16737;50.932;6.780;2023-02-15T12:22:01;101195.00;;;14.80
9985;BMP180;16737;50.932;6.780;2023-02-15T12:24:32;101194.00;;;14.80
9985;BMP180;16737;50.932;6.780;2023-02-15T12:27:04;101184.00;;;14.90
9985;BMP180;16737;50.932;6.780;2023-02-15T12:29:40;101179.00;;;15.00
9985;BMP180;16737;50.932;6.780;2023-02-15T12:32:17;101183.00;;;15.10
9985;BMP180;16737;50.932;6.780;2023-02-15T12:34:45;101190.00;;;15.20
9985;BMP180;16737;50.932;6.780;2023-02-15T12:37:19;101192.00;;;15.20
9985;BMP180;16737;50.932;6.780;2023-02-15T12:39:54;101180.00;;;15.30
9985;BMP180;16737;50.932;6.780;2023-02-15T12:42:23;101176.00;;;15.40
9985;BMP180;16737;50.932;6.780;2023-02-15T12:44:58;101179.00;;;15.40
9985;BMP180;16737;50.932;6.780;2023-02-15T12:47:27;101152.00;;;15.40
9985;BMP180;16737;50.932;6.780;2023-02-15T12:50:14;101166.00;;;15.40
9985;BMP180;16737;50.932;6.780;2023-02-15T12:52:47;101157.00;;;15.50
9985;BMP180;16737;50.932;6.780;2023-02-15T12:55:24;101162.00;;;15.50
9985;BMP180;16737;50.932;6.780;2023-02-15T12:58:15;101164.00;;;15.50
9985;BMP180;16737;50.932;6.780;2023-02-15T13:00:44;101154.00;;;15.60
9985;BMP180;16737;50.932;6.780;2023-02-15T13:03:18;101152.00;;;15.60
9985;BMP180;16737;50.932;6.780;2023-02-15T13:05:51;101131.00;;;15.60
9985;BMP180;16737;50.932;6.780;2023-02-15T13:08:21;101143.00;;;15.60
9985;BMP180;16737;50.932;6.780;2023-02-15T13:10:56;101140.00;;;15.70
9985;BMP180;16737;50.932;6.780;2023-02-15T13:13:27;101139.00;;;15.70
9985;BMP180;16737;50.932;6.780;2023-02-15T13:16:00;101148.00;;;15.80
9985;BMP180;16737;50.932;6.780;2023-02-15T13:18:36;101119.00;;;15.80
9985;BMP180;16737;50.932;6.780;2023-02-15T13:21:11;101141.00;;;15.80
9985;BMP180;16737;50.932;6.780;2023-02-15T13:23:42;101121.00;;;15.90
9985;BMP180;16737;50.932;6.780;2023-02-15T13:26:18;101125.00;;;15.90
9985;BMP180;16737;50.932;6.780;2023-02-15T13:28:50;101133.00;;;16.00
9985;BMP180;16737;50.932;6.780;2023-02-15T13:31:21;101119.00;;;16.00
9985;BMP180;16737;50.932;6.780;2023-02-15T13:33:56;101125.00;;;16.10
9985;BMP180;16737;50.932;6.780;2023-02-15T13:36:31;101115.00;;;16.10
9985;BMP180;16737;50.932;6.780;2023-02-15T13:39:17;101116.00;;;16.20
9985;BMP180;16737;50.932;6.780;2023-02-15T13:41:56;101118.00;;;16.20
9985;BMP180;16737;50.932;6.780;2023-02-15T13:44:53;101108.00;;;16.30
9985;BMP180;16737;50.932;6.780;2023-02-15T13:47:32;101112.00;;;16.40
9985;BMP180;16737;50.932;6.780;2023-02-15T13:50:31;101105.00;;;16.40
9985;BMP180;16737;50.932;6.780;2023-02-15T13:53:33;101101.00;;;16.50
9985;BMP180;16737;50.932;6.780;2023-02-15T13:56:16;101091.00;;;16.50
9985;BMP180;16737;50.932;6.780;2023-02-15T13:59:06;101106.00;;;16.50
9985;BMP180;16737;50.932;6.780;2023-02-15T14:01:44;101105.00;;;16.50
9985;BMP180;16737;50.932;6.780;2023-02-15T14:04:39;101105.00;;;16.50
9985;BMP180;16737;50.932;6.780;2023-02-15T14:07:46;101105.00;;;16.40
9985;BMP180;16737;50.932;6.780;2023-02-15T14:10:34;101076.00;;;16.50
9985;BMP180;16737;50.932;6.780;2023-02-15T14:13:50;101104.00;;;16.50
9985;BMP180;16737;50.932;6.780;2023-02-15T14:16:33;101088.00;;;16.50
9985;BMP180;16737;50.932;6.780;2023-02-15T14:19:16;101100.00;;;16.50
9985;BMP180;16737;50.932;6.780;2023-02-15T14:21:55;101094.00;;;16.50
9985;BMP180;16737;50.932;6.780;2023-02-15T14:24:37;101104.00;;;16.50
9985;BMP180;16737;50.932;6.780;2023-02-15T14:27:17;101101.00;;;16.50
9985;BMP180;16737;50.932;6.780;2023-02-15T14:29:51;101099.00;;;16.50
9985;BMP180;16737;50.932;6.780;2023-02-15T14:32:28;101087.00;;;16.40
9985;BMP180;16737;50.932;6.780;2023-02-15T14:35:00;101089.00;;;16.40
9985;BMP180;16737;50.932;6.780;2023-02-15T14:37:41;101083.00;;;16.40
9985;BMP180;16737;50.932;6.780;2023-02-15T14:40:31;101072.00;;;16.40
9985;BMP180;16737;50.932;6.780;2023-02-15T14:43:30;101100.00;;;16.40
9985;BMP180;16737;50.932;6.780;2023-02-15T14:46:06;101093.00;;;16.30
9985;BMP180;16737;50.932;6.780;2023-02-15T14:48:42;101085.00;;;16.30
9985;BMP180;16737;50.932;6.780;2023-02-15T14:54:57;101088.00;;;16.20
9985;BMP180;16737;50.932;6.780;2023-02-15T14:57:28;101079.00;;;16.20
9985;BMP180;16737;50.932;6.780;2023-02-15T14:59:59;101084.00;;;16.20
9985;BMP180;16737;50.932;6.780;2023-02-15T15:02:43;101086.00;;;16.20
9985;BMP180;16737;50.932;6.780;2023-02-15T15:05:19;101081.00;;;16.10
9985;BMP180;16737;50.932;6.780;2023-02-15T15:07:50;101087.00;;;16.20
9985;BMP180;16737;50.932;6.780;2023-02-15T15:10:38;101077.00;;;16.10
9985;BMP180;16737;50.932;6.780;2023-02-15T15:13:53;101042.00;;;16.10